createdAt,value
2019-01-05T00:03:17.660Z,101481.88
2019-01-05T00:06:03.646Z,101491.85
2019-01-05T00:08:49.646Z,101487.13
2019-01-05T00:11:35.620Z,101485.36
2019-01-05T00:17:22.657Z,101489.67
2019-01-05T00:20:30.219Z,101494.03
2019-01-05T00:26:09.749Z,101499.73
2019-01-05T00:31:50.086Z,101501.03
2019-01-05T00:34:57.632Z,101507.89
2019-01-05T00:40:37.589Z,101515.69
2019-01-05T00:43:23.764Z,101526.08
2019-01-05T00:46:31.313Z,101526.08
2019-01-05T00:52:52.125Z,101541.20
2019-01-05T00:55:40.109Z,101538.54
2019-01-05T00:58:26.105Z,101544.61
2019-01-05T01:01:12.291Z,101536.77
2019-01-05T01:03:58.277Z,101547.62
2019-01-05T01:06:44.263Z,101541.09
2019-01-05T01:09:30.264Z,101537.61
2019-01-05T01:15:03.884Z,101553.55
2019-01-05T01:17:49.880Z,101562.22
2019-01-05T01:20:35.862Z,101558.70
2019-01-05T01:26:27.550Z,101565.71
2019-01-05T01:29:35.122Z,101566.59
2019-01-05T01:32:21.095Z,101563.06
2019-01-05T01:38:02.990Z,101579.48
2019-01-05T01:40:49.344Z,101575.20
2019-01-05T01:46:39.652Z,101576.56
2019-01-05T01:49:25.727Z,101583.51
2019-01-05T01:52:33.277Z,101583.92
2019-01-05T01:55:19.368Z,101580.04
2019-01-05T01:58:05.478Z,101581.38
2019-01-05T02:01:13.026Z,101579.20
2019-01-05T02:04:20.576Z,101599.05
2019-01-05T02:10:28.946Z,101586.06
2019-01-05T02:13:36.495Z,101592.97
2019-01-05T02:23:16.184Z,101603.30
2019-01-05T02:35:30.849Z,101609.28
2019-01-05T02:38:56.338Z,101611.88
2019-01-05T02:42:03.901Z,101608.50
2019-01-05T02:45:29.384Z,101620.07
2019-01-05T02:51:53.827Z,101624.42
2019-01-05T02:55:01.386Z,101618.77
2019-01-05T02:58:26.910Z,101614.52
2019-01-05T03:01:34.443Z,101617.58
2019-01-05T03:04:59.957Z,101607.61
2019-01-05T03:08:25.441Z,101615.77
2019-01-05T03:11:50.956Z,101611.50
2019-01-05T03:15:16.462Z,101606.30
2019-01-05T03:18:24.070Z,101630.19
2019-01-05T03:28:20.115Z,101632.70
2019-01-05T03:34:41.765Z,101633.56
2019-01-05T03:41:08.184Z,101636.53
2019-01-05T03:47:34.205Z,101641.88
2019-01-05T03:50:59.996Z,101649.66
2019-01-05T03:54:07.545Z,101644.48
2019-01-05T04:03:34.095Z,101647.13
2019-01-05T04:15:44.416Z,101652.84
2019-01-05T04:31:15.330Z,101669.67
2019-01-05T04:34:22.889Z,101676.10
2019-01-05T04:41:18.611Z,101668.33
2019-01-05T04:44:26.144Z,101667.95
2019-01-05T04:47:33.721Z,101672.27
2019-01-05T04:50:41.267Z,101686.44
2019-01-05T04:57:21.608Z,101679.58
2019-01-05T05:00:47.115Z,101684.31
2019-01-05T05:04:12.638Z,101682.23
2019-01-05T05:07:38.127Z,101681.73
2019-01-05T05:11:03.962Z,101683.84
2019-01-05T05:14:29.464Z,101692.50
2019-01-05T05:17:37.016Z,101675.18
2019-01-05T05:21:02.536Z,101678.70
2019-01-05T05:24:28.024Z,101689.03
2019-01-05T05:27:35.569Z,101689.09
2019-01-05T05:31:01.092Z,101688.72
2019-01-05T05:37:39.895Z,101702.20
2019-01-05T05:44:04.435Z,101706.97
2019-01-05T05:54:16.250Z,101714.64
2019-01-05T06:12:31.634Z,101728.63
2019-01-05T06:18:39.613Z,101743.25
2019-01-05T06:22:05.149Z,101737.19
2019-01-05T06:25:31.978Z,101738.84
2019-01-05T06:28:57.491Z,101752.34
2019-01-05T06:35:24.433Z,101748.51
2019-01-05T06:41:48.592Z,101741.08
2019-01-05T06:48:12.990Z,101754.00
2019-01-05T06:57:45.406Z,101754.41
2019-01-05T07:01:10.900Z,101756.17
2019-01-05T07:04:36.431Z,101775.13
2019-01-05T07:08:01.938Z,101771.65
2019-01-05T07:17:32.628Z,101792.30
2019-01-05T07:20:40.198Z,101775.83
2019-01-05T07:27:15.810Z,101780.62
2019-01-05T07:30:41.299Z,101777.20
2019-01-05T07:34:07.628Z,101775.95
2019-01-05T07:37:33.122Z,101781.03
2019-01-05T07:40:40.685Z,101770.66
2019-01-05T07:44:06.185Z,101776.67
2019-01-05T07:50:51.691Z,101784.09
2019-01-05T07:53:59.266Z,101784.50
2019-01-05T07:57:06.813Z,101798.19
2019-01-05T08:03:45.876Z,101779.20
2019-01-05T08:07:12.159Z,101777.95
2019-01-05T08:10:19.720Z,101785.16
2019-01-05T08:13:45.226Z,101777.08
2019-01-05T08:16:52.773Z,101784.10
2019-01-05T08:20:00.305Z,101778.95
2019-01-05T08:23:25.827Z,101774.01
2019-01-05T08:36:30.633Z,101774.95
2019-01-05T08:39:56.435Z,101773.92
2019-01-05T08:52:51.362Z,101784.80
2019-01-05T08:56:16.881Z,101784.67
2019-01-05T08:59:42.369Z,101797.41
2019-01-05T09:03:07.880Z,101800.75
2019-01-05T09:06:33.680Z,101789.02
2019-01-05T09:09:41.242Z,101796.23
2019-01-05T09:13:06.716Z,101804.16
2019-01-05T09:16:14.573Z,101790.55
2019-01-05T09:22:53.711Z,101812.09
2019-01-05T09:26:01.550Z,101797.86
2019-01-05T09:29:27.036Z,101801.83
2019-01-05T09:32:52.551Z,101807.88
2019-01-05T09:42:50.342Z,101824.49
2019-01-05T09:45:57.945Z,101823.95
2019-01-05T09:49:23.410Z,101814.47
2019-01-05T09:52:31.278Z,101809.76
2019-01-05T09:55:57.360Z,101813.91
2019-01-05T10:02:05.916Z,101811.00
2019-01-05T10:08:55.355Z,101813.28
2019-01-05T10:12:20.845Z,101807.37
2019-01-05T10:15:28.667Z,101801.76
2019-01-05T10:21:50.030Z,101795.91
2019-01-05T10:28:13.539Z,101806.06
2019-01-05T10:31:39.354Z,101801.41
2019-01-05T10:34:46.920Z,101806.25
2019-01-05T10:41:10.778Z,101815.55
2019-01-05T10:47:19.389Z,101821.42
2019-01-05T10:50:44.910Z,101829.81
2019-01-05T11:00:24.097Z,101835.78
2019-01-05T11:12:53.223Z,101842.52
2019-01-05T11:16:19.013Z,101844.45
2019-01-05T11:19:26.564Z,101838.70
2019-01-05T11:25:52.919Z,101831.77
2019-01-05T11:29:00.496Z,101823.84
2019-01-05T11:38:28.081Z,101822.74
2019-01-05T11:41:53.889Z,101827.53
2019-01-05T11:45:19.659Z,101827.41
2019-01-05T11:48:45.177Z,101820.11
2019-01-05T11:52:10.991Z,101814.74
2019-01-05T11:55:36.493Z,101819.87
2019-01-05T11:58:44.048Z,101827.32
2019-01-05T12:08:05.686Z,101820.58
2019-01-05T12:11:31.451Z,101815.33
2019-01-05T12:14:56.949Z,101808.97
2019-01-05T12:18:04.534Z,101816.31
2019-01-05T12:21:30.047Z,101798.89
2019-01-05T12:31:00.613Z,101803.75
2019-01-05T12:34:26.143Z,101812.07
2019-01-05T12:37:51.621Z,101808.12
2019-01-05T12:41:17.394Z,101810.27
2019-01-05T12:44:25.069Z,101815.98
2019-01-05T12:47:32.879Z,101814.75
2019-01-05T12:50:58.410Z,101812.23
2019-01-05T12:54:05.952Z,101819.52
2019-01-05T12:57:13.535Z,101802.80
2019-01-05T13:00:39.336Z,101799.74
2019-01-05T13:03:47.169Z,101806.49
2019-01-05T13:06:54.706Z,101807.22
2019-01-05T13:10:20.220Z,101801.12
2019-01-05T13:13:45.725Z,101804.84
2019-01-05T13:17:11.531Z,101803.80
2019-01-05T13:20:19.081Z,101795.72
2019-01-05T13:23:26.948Z,101808.00
2019-01-05T13:26:34.486Z,101806.86
2019-01-05T13:29:42.067Z,101806.14
2019-01-05T13:36:08.029Z,101813.84
2019-01-05T13:42:55.158Z,101817.69
2019-01-05T13:49:19.187Z,101814.55
2019-01-05T13:52:44.977Z,101810.39
2019-01-05T14:01:27.034Z,101831.73
2019-01-05T14:06:47.178Z,101823.59
2019-01-05T14:09:33.461Z,101811.16
2019-01-05T14:14:53.630Z,101812.94
2019-01-05T14:17:40.443Z,101808.02
2019-01-05T14:20:26.453Z,101813.09
2019-01-05T14:23:12.491Z,101824.59
2019-01-05T14:25:58.499Z,101831.79
2019-01-05T14:28:44.504Z,101834.66
2019-01-05T14:31:30.490Z,101839.83
2019-01-05T14:34:16.782Z,101844.10
2019-01-05T14:40:03.362Z,101848.94
2019-01-05T14:42:49.362Z,101841.05
2019-01-05T14:45:35.380Z,101838.88
2019-01-05T14:48:21.652Z,101837.42
2019-01-05T14:51:07.666Z,101839.98
2019-01-05T15:01:53.049Z,101738.41
2019-01-05T15:04:39.066Z,101841.42
2019-01-05T15:07:25.058Z,101839.42
2019-01-05T15:10:11.074Z,101843.88
2019-01-05T15:12:57.067Z,101837.58
2019-01-05T15:15:43.076Z,101843.08
2019-01-05T15:18:29.065Z,101835.73
2019-01-05T15:23:52.499Z,101844.94
2019-01-05T15:26:38.501Z,101845.92
2019-01-05T15:29:24.740Z,101838.72
2019-01-05T15:32:10.747Z,101845.94
2019-01-05T15:40:18.035Z,101841.20
2019-01-05T15:43:04.040Z,101831.67
2019-01-05T15:48:37.644Z,101825.75
2019-01-05T15:51:23.645Z,101835.38
2019-01-05T15:54:09.650Z,101841.88
2019-01-05T15:56:55.668Z,101840.51
2019-01-05T15:59:41.672Z,101837.25
2019-01-05T16:02:27.661Z,101850.96
2019-01-05T16:05:13.667Z,101829.00
2019-01-05T16:10:47.261Z,101835.17
2019-01-05T16:13:33.278Z,101842.97
2019-01-05T16:16:19.278Z,101834.56
2019-01-05T16:19:05.286Z,101837.02
2019-01-05T16:21:51.281Z,101844.70
2019-01-05T16:24:37.286Z,101852.46
2019-01-05T16:27:23.276Z,101849.75
2019-01-05T16:30:09.294Z,101863.05
2019-01-05T16:32:55.294Z,101870.59
2019-01-05T16:35:41.567Z,101870.14
2019-01-05T16:38:27.574Z,101867.08
2019-01-05T16:41:13.578Z,101871.90
2019-01-05T16:43:59.849Z,101861.78
2019-01-05T16:46:45.858Z,101860.19
2019-01-05T16:49:31.852Z,101860.59
2019-01-05T16:52:17.861Z,101864.52
2019-01-05T16:55:03.867Z,101850.97
2019-01-05T16:57:49.865Z,101842.56
2019-01-05T17:00:35.878Z,101850.89
2019-01-05T17:06:09.467Z,101864.17
2019-01-05T17:08:55.455Z,101867.45
2019-01-05T17:11:41.469Z,101870.16
2019-01-05T17:14:27.464Z,101874.06
2019-01-05T17:22:21.369Z,101891.63
2019-01-05T17:25:07.366Z,101854.78
2019-01-05T17:27:53.386Z,101899.59
2019-01-05T17:30:39.383Z,101886.69
2019-01-05T17:33:25.375Z,101894.20
2019-01-05T17:36:11.363Z,101884.51
2019-01-05T17:41:31.768Z,101883.45
2019-01-05T17:44:17.799Z,101881.06
2019-01-05T17:47:03.876Z,101879.39
2019-01-05T17:49:49.876Z,101882.27
2019-01-05T17:52:35.896Z,101881.06
2019-01-05T17:55:21.871Z,101884.95
2019-01-05T17:58:07.899Z,101900.73
2019-01-05T18:00:53.900Z,101892.39
2019-01-05T18:03:39.891Z,101881.89
2019-01-05T18:09:00.242Z,101885.77
2019-01-05T18:11:46.220Z,101884.17
2019-01-05T18:17:06.481Z,101866.69
2019-01-05T18:22:40.072Z,101864.13
2019-01-05T18:25:26.115Z,101874.97
2019-01-05T18:28:12.088Z,101875.19
2019-01-05T18:30:58.106Z,101874.95
2019-01-05T18:33:44.220Z,101874.66
2019-01-05T18:36:30.226Z,101877.72
2019-01-05T18:39:16.235Z,101879.95
2019-01-05T18:42:02.260Z,101882.13
2019-01-05T18:47:35.869Z,101880.66
2019-01-05T18:58:44.796Z,101883.61
2019-01-05T19:01:30.745Z,101884.39
2019-01-05T19:04:16.775Z,101885.99
2019-01-05T19:07:02.733Z,101886.45
2019-01-05T19:09:48.741Z,101886.88
2019-01-05T19:12:34.739Z,101878.59
2019-01-05T19:15:20.758Z,101878.02
2019-01-05T19:18:06.738Z,101872.08
2019-01-05T19:20:52.753Z,101869.05
2019-01-05T19:23:38.750Z,101872.41
2019-01-05T19:26:24.808Z,101876.36
2019-01-05T19:29:10.784Z,101879.59
2019-01-05T19:31:56.782Z,101869.18
2019-01-05T19:34:42.822Z,101874.60
2019-01-05T19:40:02.642Z,101892.00
2019-01-05T19:42:48.653Z,101879.36
2019-01-05T19:48:08.587Z,101876.63
2019-01-05T19:50:54.589Z,101873.19
2019-01-05T19:53:40.592Z,101872.38
2019-01-05T19:56:26.602Z,101868.16
2019-01-05T20:02:00.209Z,101864.13
2019-01-05T20:04:46.205Z,101859.23
2019-01-05T20:07:32.200Z,101861.78
2019-01-05T20:10:18.184Z,101855.02
2019-01-05T20:13:04.189Z,101851.80
2019-01-05T20:15:50.179Z,101852.89
2019-01-05T20:21:09.799Z,101837.96
2019-01-05T20:23:55.806Z,101840.78
2019-01-05T20:26:41.809Z,101845.89
2019-01-05T20:29:27.821Z,101843.33
2019-01-05T20:32:13.801Z,101843.83
2019-01-05T20:34:59.818Z,101841.91
2019-01-05T20:37:45.805Z,101842.88
2019-01-05T20:40:31.809Z,101842.61
2019-01-05T20:43:17.806Z,101843.00
2019-01-05T20:48:37.615Z,101838.20
2019-01-05T20:51:23.616Z,101843.69
2019-01-05T20:54:09.626Z,101841.14
2019-01-05T20:56:55.619Z,101853.20
2019-01-05T20:59:41.617Z,101841.91
2019-01-05T21:02:29.137Z,101851.56
2019-01-05T21:05:15.753Z,101844.98
2019-01-05T21:08:01.745Z,101850.28
2019-01-05T21:10:48.009Z,101844.20
2019-01-05T21:13:34.010Z,101841.86
2019-01-05T21:16:20.020Z,101839.89
2019-01-05T21:19:05.999Z,101843.52
2019-01-05T21:21:52.020Z,101833.13
2019-01-05T21:24:38.003Z,101836.80
2019-01-05T21:27:24.020Z,101828.95
2019-01-05T21:32:57.619Z,101819.33
2019-01-05T21:35:43.912Z,101824.45
2019-01-05T21:38:29.904Z,101814.94
2019-01-05T21:41:15.914Z,101802.97
2019-01-05T21:46:49.501Z,101810.42
2019-01-05T21:49:35.495Z,101823.58
2019-01-05T21:54:55.693Z,101829.00
2019-01-05T21:57:41.686Z,101830.46
2019-01-05T22:03:28.483Z,101814.77
2019-01-05T22:06:14.557Z,101812.10
2019-01-05T22:09:00.577Z,101802.28
2019-01-05T22:14:34.173Z,101791.78
2019-01-05T22:17:20.409Z,101780.67
2019-01-05T22:25:14.396Z,101781.77
2019-01-05T22:33:25.482Z,101798.77
2019-01-05T22:36:11.531Z,101794.17
2019-01-05T22:38:57.812Z,101804.38
2019-01-05T22:41:43.820Z,101799.84
2019-01-05T22:47:17.410Z,101794.83
2019-01-05T22:50:03.402Z,101798.00
2019-01-05T22:55:23.688Z,101800.25
2019-01-05T22:58:09.687Z,101805.16
2019-01-05T23:00:55.672Z,101805.04
2019-01-05T23:03:41.666Z,101801.91
2019-01-05T23:09:15.314Z,101797.12
2019-01-05T23:12:01.310Z,101797.31
2019-01-05T23:14:47.308Z,101794.18
2019-01-05T23:17:33.289Z,101785.02
2019-01-05T23:22:53.476Z,101785.72
2019-01-05T23:25:39.486Z,101782.67
2019-01-05T23:28:25.495Z,101784.83
2019-01-05T23:31:11.499Z,101775.52
2019-01-05T23:36:45.093Z,101778.84
2019-01-05T23:39:31.087Z,101782.97
2019-01-05T23:42:17.113Z,101773.47
2019-01-05T23:47:50.695Z,101759.34
2019-01-05T23:50:36.983Z,101754.16
2019-01-05T23:53:22.988Z,101757.79
2019-01-05T23:56:09.001Z,101752.58
2019-01-05T23:58:54.984Z,101742.37
